createdAt,value
2023-05-05T00:03:18.328Z,2.73
2023-05-05T00:07:21.071Z,3.10
2023-05-05T00:11:28.668Z,3.03
2023-05-05T00:15:31.420Z,2.90
2023-05-05T00:19:34.060Z,3.20
2023-05-05T00:23:37.062Z,2.90
2023-05-05T00:27:41.106Z,3.30
2023-05-05T00:31:43.816Z,3.60
2023-05-05T00:35:48.207Z,3.77
2023-05-05T00:39:51.031Z,3.60
2023-05-05T00:43:55.543Z,3.23
2023-05-05T00:48:02.213Z,3.70
2023-05-05T00:52:06.661Z,3.37
2023-05-05T00:56:09.682Z,3.03
2023-05-05T01:00:14.776Z,3.30
2023-05-05T01:04:18.094Z,3.47
2023-05-05T01:08:30.529Z,3.10
2023-05-05T01:12:39.347Z,3.50
2023-05-05T01:16:53.578Z,2.80
2023-05-05T01:21:00.614Z,2.93
2023-05-05T01:25:32.046Z,3.33
2023-05-05T01:29:52.161Z,3.00
2023-05-05T01:34:01.708Z,3.00
2023-05-05T01:38:07.425Z,2.70
2023-05-05T01:42:13.845Z,3.27
2023-05-05T01:46:17.137Z,2.87
2023-05-05T01:50:25.940Z,3.40
2023-05-05T01:54:29.047Z,3.20
2023-05-05T01:58:35.831Z,3.20
2023-05-05T02:02:40.002Z,3.20
2023-05-05T02:06:51.593Z,3.20
2023-05-05T02:10:55.099Z,3.33
2023-05-05T02:15:00.374Z,3.60
2023-05-05T02:19:05.314Z,3.80
2023-05-05T02:23:09.549Z,3.80
2023-05-05T02:27:12.667Z,3.57
2023-05-05T02:31:16.418Z,3.60
2023-05-05T02:35:22.399Z,3.33
2023-05-05T02:39:32.722Z,3.57
2023-05-05T02:43:37.480Z,3.70
2023-05-05T02:47:40.455Z,3.97
2023-05-05T02:51:43.298Z,3.13
2023-05-05T02:55:52.834Z,2.93
2023-05-05T03:00:00.185Z,3.57
2023-05-05T03:04:08.392Z,3.60
2023-05-05T03:08:14.529Z,3.20
2023-05-05T03:12:22.730Z,3.63
2023-05-05T03:16:28.467Z,3.70
2023-05-05T03:20:31.603Z,3.63
2023-05-05T03:24:34.257Z,3.43
2023-05-05T03:28:38.608Z,3.67
2023-05-05T03:32:41.633Z,4.00
2023-05-05T03:36:44.377Z,4.03
2023-05-05T03:40:47.162Z,4.13
2023-05-05T03:44:53.504Z,3.80
2023-05-05T03:48:57.098Z,4.00
2023-05-05T03:52:59.929Z,3.70
2023-05-05T03:57:02.847Z,3.93
2023-05-05T04:01:06.939Z,4.17
2023-05-05T04:05:10.155Z,4.03
2023-05-05T04:09:13.932Z,4.13
2023-05-05T04:13:17.005Z,4.23
2023-05-05T04:17:21.606Z,4.13
2023-05-05T04:21:24.548Z,4.10
2023-05-05T04:25:27.294Z,3.70
2023-05-05T04:29:32.139Z,3.47
2023-05-05T04:33:36.461Z,4.10
2023-05-05T04:37:39.119Z,3.30
2023-05-05T04:41:41.773Z,3.30
2023-05-05T04:45:53.516Z,3.33
2023-05-05T04:49:57.592Z,3.33
2023-05-05T04:54:01.246Z,3.60
2023-05-05T04:58:03.926Z,3.47
2023-05-05T05:02:06.960Z,3.17
2023-05-05T05:06:11.317Z,3.07
2023-05-05T05:10:14.127Z,3.00
2023-05-05T05:14:19.555Z,3.03
2023-05-05T05:18:22.221Z,3.30
2023-05-05T05:22:26.259Z,2.87
2023-05-05T05:26:28.984Z,3.10
2023-05-05T05:30:31.664Z,2.80
2023-05-05T05:34:34.308Z,2.93
2023-05-05T05:38:38.809Z,2.60
2023-05-05T05:42:41.979Z,2.43
2023-05-05T05:46:45.283Z,2.77
2023-05-05T05:50:48.350Z,2.73
2023-05-05T05:54:52.501Z,3.00
2023-05-05T05:58:55.190Z,3.20
2023-05-05T06:02:57.929Z,3.00
2023-05-05T06:07:00.932Z,3.27
2023-05-05T06:11:05.212Z,3.07
2023-05-05T06:15:08.493Z,3.23
2023-05-05T06:19:11.170Z,3.60
2023-05-05T06:23:13.858Z,3.10
2023-05-05T06:27:18.181Z,3.07
2023-05-05T06:31:21.102Z,3.10
2023-05-05T06:35:24.641Z,3.20
2023-05-05T06:39:27.529Z,3.90
2023-05-05T06:43:31.886Z,3.40
2023-05-05T06:47:34.881Z,3.17
2023-05-05T06:51:37.905Z,3.40
2023-05-05T06:55:43.724Z,3.30
2023-05-05T06:59:48.186Z,3.43
2023-05-05T07:03:53.995Z,3.57
2023-05-05T07:07:58.113Z,3.03
2023-05-05T07:12:00.950Z,3.67
2023-05-05T07:16:05.889Z,3.50
2023-05-05T07:20:09.676Z,3.27
2023-05-05T07:24:12.724Z,3.70
2023-05-05T07:28:15.459Z,3.70
2023-05-05T07:32:20.165Z,3.60
2023-05-05T07:36:22.946Z,3.50
2023-05-05T07:40:26.101Z,3.40
2023-05-05T07:44:30.874Z,3.63
2023-05-05T07:48:35.008Z,3.57
2023-05-05T07:52:48.457Z,3.93
2023-05-05T07:56:54.391Z,4.20
2023-05-05T08:00:57.563Z,3.80
2023-05-05T08:05:01.718Z,4.30
2023-05-05T08:09:04.767Z,4.20
2023-05-05T08:13:07.533Z,4.50
2023-05-05T08:17:10.253Z,4.73
2023-05-05T08:21:15.082Z,5.63
2023-05-05T08:25:17.855Z,6.57
2023-05-05T08:29:20.561Z,5.10
2023-05-05T08:33:23.278Z,5.70
2023-05-05T08:37:27.310Z,5.53
2023-05-05T08:41:30.072Z,5.83
2023-05-05T08:45:33.334Z,3.60
2023-05-05T08:49:41.909Z,6.60
2023-05-05T08:53:53.192Z,4.10
2023-05-05T08:58:01.761Z,4.93
2023-05-05T09:02:05.243Z,5.93
2023-05-05T09:06:09.516Z,6.53
2023-05-05T09:10:13.875Z,5.10
2023-05-05T09:14:16.680Z,7.93
2023-05-05T09:18:19.426Z,6.00
2023-05-05T09:22:34.239Z,6.63
2023-05-05T09:26:40.168Z,5.43
2023-05-05T09:30:44.932Z,4.50
2023-05-05T09:34:58.359Z,5.07
2023-05-05T09:39:07.775Z,6.50
2023-05-05T09:43:12.941Z,7.47
2023-05-05T09:47:28.583Z,7.73
2023-05-05T09:51:33.058Z,6.97
2023-05-05T09:55:38.673Z,6.67
2023-05-05T09:59:58.522Z,7.60
2023-05-05T10:04:03.900Z,5.77
2023-05-05T10:08:13.852Z,6.70
2023-05-05T10:12:17.452Z,6.87
2023-05-05T10:16:21.850Z,5.75
2023-05-05T10:20:25.591Z,5.73
2023-05-05T10:24:34.651Z,6.28
2023-05-05T10:28:49.126Z,5.50
2023-05-05T10:33:13.258Z,7.20
2023-05-05T10:37:19.029Z,4.50
2023-05-05T10:41:21.883Z,4.95
2023-05-05T10:45:27.910Z,4.80
2023-05-05T10:49:37.117Z,4.35
2023-05-05T10:53:45.442Z,5.05
2023-05-05T10:57:53.217Z,4.85
2023-05-05T11:01:56.065Z,4.28
2023-05-05T11:06:17.782Z,4.60
2023-05-05T11:10:24.176Z,4.00
2023-05-05T11:14:27.153Z,4.20
2023-05-05T11:18:35.931Z,3.63
2023-05-05T11:23:13.422Z,4.55
2023-05-05T11:27:19.378Z,4.50
2023-05-05T11:31:22.413Z,4.43
2023-05-05T11:35:57.500Z,4.05
2023-05-05T11:40:05.613Z,5.00
2023-05-05T11:44:14.324Z,4.73
2023-05-05T11:48:26.688Z,4.53
2023-05-05T11:52:30.512Z,3.90
2023-05-05T11:56:33.658Z,3.77
2023-05-05T12:00:37.837Z,3.60
2023-05-05T12:04:40.957Z,3.53
2023-05-05T12:08:43.769Z,3.80
2023-05-05T12:12:46.752Z,3.63
2023-05-05T12:16:57.457Z,3.20
2023-05-05T12:21:01.734Z,3.70
2023-05-05T12:25:07.749Z,4.03
2023-05-05T12:29:11.008Z,3.97
2023-05-05T12:33:15.061Z,2.97
2023-05-05T12:37:21.187Z,3.00
2023-05-05T12:41:27.997Z,2.90
2023-05-05T12:45:33.243Z,2.93
2023-05-05T12:49:48.618Z,2.77
2023-05-05T12:54:03.922Z,3.47
2023-05-05T12:58:08.125Z,2.53
2023-05-05T13:02:10.957Z,2.47
2023-05-05T13:06:24.666Z,2.63
2023-05-05T13:10:28.062Z,2.60
2023-05-05T13:14:31.606Z,2.20
2023-05-05T13:18:44.812Z,2.10
2023-05-05T13:22:48.858Z,1.70
2023-05-05T13:26:51.827Z,1.63
2023-05-05T13:30:54.548Z,2.00
2023-05-05T13:34:57.900Z,1.70
2023-05-05T13:39:02.169Z,2.30
2023-05-05T13:43:05.011Z,1.80
2023-05-05T13:47:08.881Z,1.60
2023-05-05T13:51:11.736Z,1.80
2023-05-05T13:55:15.992Z,1.70
2023-05-05T13:59:22.189Z,1.67
2023-05-05T14:03:24.898Z,1.50
2023-05-05T14:07:28.436Z,1.50
2023-05-05T14:11:32.696Z,1.50
2023-05-05T14:15:36.793Z,1.60
2023-05-05T14:19:44.525Z,1.60
2023-05-05T14:23:47.231Z,1.80
2023-05-05T14:27:51.637Z,1.77
2023-05-05T14:31:54.679Z,1.97
2023-05-05T14:35:57.498Z,1.87
2023-05-05T14:40:00.563Z,1.70
2023-05-05T14:44:04.999Z,1.77
2023-05-05T14:48:08.121Z,1.50
2023-05-05T14:52:16.660Z,1.63
2023-05-05T14:56:21.807Z,2.10
2023-05-05T15:00:26.911Z,1.67
2023-05-05T15:04:29.743Z,2.00
2023-05-05T15:08:32.468Z,1.60
2023-05-05T15:12:35.269Z,1.70
2023-05-05T15:16:39.947Z,1.50
2023-05-05T15:20:42.880Z,1.70
2023-05-05T15:24:45.592Z,1.80
2023-05-05T15:28:50.309Z,1.50
2023-05-05T15:32:54.706Z,1.73
2023-05-05T15:36:57.938Z,1.73
2023-05-05T15:41:00.762Z,1.70
2023-05-05T15:45:03.534Z,1.70
2023-05-05T15:49:07.721Z,2.00
2023-05-05T15:53:10.483Z,1.80
2023-05-05T15:57:13.480Z,2.10
2023-05-05T16:01:16.590Z,1.97
2023-05-05T16:05:22.814Z,2.00
2023-05-05T16:09:25.893Z,2.00
2023-05-05T16:13:29.210Z,1.53
2023-05-05T16:17:32.042Z,1.90
2023-05-05T16:21:36.120Z,2.00
2023-05-05T16:25:39.136Z,1.97
2023-05-05T16:29:41.942Z,2.10
2023-05-05T16:33:44.730Z,2.60
2023-05-05T16:37:50.667Z,2.10
2023-05-05T16:41:53.412Z,2.70
2023-05-05T16:45:56.361Z,1.90
2023-05-05T16:49:59.117Z,2.30
2023-05-05T16:54:03.217Z,2.40
2023-05-05T16:58:06.012Z,2.20
2023-05-05T17:02:08.833Z,3.00
2023-05-05T17:06:14.965Z,2.67
2023-05-05T17:10:19.357Z,2.40
2023-05-05T17:14:22.060Z,2.50
2023-05-05T17:18:25.920Z,3.30
2023-05-05T17:22:28.883Z,2.40
2023-05-05T17:26:35.175Z,2.50
2023-05-05T17:30:38.294Z,2.97
2023-05-05T17:34:41.204Z,2.60
2023-05-05T17:38:44.155Z,2.57
2023-05-05T17:42:48.252Z,2.40
2023-05-05T17:46:51.250Z,2.40
2023-05-05T17:50:54.628Z,2.70
2023-05-05T17:54:57.851Z,3.00
2023-05-05T17:59:02.967Z,3.37
2023-05-05T18:03:05.782Z,4.63
2023-05-05T18:07:08.792Z,4.33
2023-05-05T18:11:15.212Z,3.80
2023-05-05T18:15:22.067Z,3.20
2023-05-05T18:19:24.907Z,3.23
2023-05-05T18:23:27.832Z,3.40
2023-05-05T18:27:32.589Z,3.60
2023-05-05T18:31:37.085Z,4.90
2023-05-05T18:35:39.892Z,3.23
2023-05-05T18:39:44.047Z,3.20
2023-05-05T18:43:46.930Z,2.87
2023-05-05T18:47:51.187Z,3.83
2023-05-05T18:51:55.719Z,3.80
2023-05-05T18:55:58.978Z,16.97
2023-05-05T19:00:01.688Z,5.30
2023-05-05T19:04:15.625Z,4.40
2023-05-05T19:08:25.606Z,3.70
2023-05-05T19:12:29.267Z,3.57
2023-05-05T19:16:32.769Z,3.10
2023-05-05T19:20:38.455Z,2.37
2023-05-05T19:24:41.559Z,2.53
2023-05-05T19:28:44.382Z,2.37
2023-05-05T19:32:47.149Z,2.10
2023-05-05T19:36:51.312Z,1.57
2023-05-05T19:40:54.195Z,1.60
2023-05-05T19:44:57.250Z,1.90
2023-05-05T19:49:02.256Z,1.57
2023-05-05T19:53:06.980Z,1.60
2023-05-05T19:57:09.726Z,1.77
2023-05-05T20:01:12.540Z,1.80
2023-05-05T20:05:17.295Z,1.77
2023-05-05T20:09:21.701Z,1.73
2023-05-05T20:13:24.482Z,1.60
2023-05-05T20:17:27.289Z,2.00
2023-05-05T20:21:30.172Z,1.83
2023-05-05T20:25:34.280Z,2.00
2023-05-05T20:29:37.247Z,1.93
2023-05-05T20:33:40.519Z,1.93
2023-05-05T20:37:46.308Z,1.90
2023-05-05T20:41:50.734Z,1.70
2023-05-05T20:45:53.431Z,2.23
2023-05-05T20:49:56.390Z,2.33
2023-05-05T20:53:59.103Z,4.30
2023-05-05T20:58:03.552Z,3.80
2023-05-05T21:02:06.421Z,2.70
2023-05-05T21:06:09.179Z,3.20
2023-05-05T21:10:12.495Z,1.80
2023-05-05T21:14:16.912Z,2.00
2023-05-05T21:18:19.672Z,2.17
2023-05-05T21:22:22.722Z,2.00
2023-05-05T21:26:25.988Z,2.10
2023-05-05T21:30:30.644Z,2.40
2023-05-05T21:34:33.363Z,2.40
2023-05-05T21:38:36.219Z,2.47
2023-05-05T21:42:39.088Z,2.40
2023-05-05T21:46:43.698Z,2.23
2023-05-05T21:50:46.777Z,2.00
2023-05-05T21:54:49.480Z,2.30
2023-05-05T21:58:52.197Z,2.50
2023-05-05T22:02:56.935Z,2.43
2023-05-05T22:06:59.773Z,2.23
2023-05-05T22:11:02.706Z,2.20
2023-05-05T22:15:06.575Z,2.30
2023-05-05T22:19:11.084Z,1.90
2023-05-05T22:23:14.474Z,2.17
2023-05-05T22:27:17.437Z,2.23
2023-05-05T22:31:20.145Z,2.40
2023-05-05T22:35:24.352Z,2.03
2023-05-05T22:39:27.081Z,2.33
2023-05-05T22:43:33.895Z,2.20
2023-05-05T22:47:36.844Z,2.20
2023-05-05T22:51:41.245Z,2.30
2023-05-05T22:55:44.249Z,2.10
2023-05-05T22:59:47.117Z,2.00
2023-05-05T23:03:49.860Z,2.40
2023-05-05T23:07:54.514Z,2.07
2023-05-05T23:11:57.123Z,2.10
2023-05-05T23:15:59.820Z,1.97
2023-05-05T23:20:04.177Z,2.00
2023-05-05T23:24:08.607Z,2.20
2023-05-05T23:28:11.310Z,1.80
2023-05-05T23:32:14.021Z,2.00
2023-05-05T23:36:17.037Z,1.83
2023-05-05T23:40:21.609Z,1.93
2023-05-05T23:44:24.804Z,1.97
2023-05-05T23:48:29.239Z,2.17
2023-05-05T23:52:32.358Z,1.90
2023-05-05T23:56:36.722Z,2.27
